Map

Track Data

SID SEASON NUMBER BASIN SUBBASIN NAME ISO_TIME NATURE LAT LON WMO_WIND WMO_PRES WMO_AGENCY TRACK_TYPE DIST2LAND LANDFALL IFLAG USA_AGENCY USA_ATCF_ID USA_LAT USA_LON USA_RECORD USA_STATUS USA_WIND USA_PRES USA_SSHS USA_R34_NE USA_R34_SE USA_R34_SW USA_R34_NW USA_R50_NE USA_R50_SE USA_R50_SW USA_R50_NW USA_R64_NE USA_R64_SE USA_R64_SW USA_R64_NW USA_POCI USA_ROCI USA_RMW USA_EYE TOKYO_LAT TOKYO_LON TOKYO_GRADE TOKYO_WIND TOKYO_PRES TOKYO_R50_DIR TOKYO_R50_LONG TOKYO_R50_SHORT TOKYO_R30_DIR TOKYO_R30_LONG TOKYO_R30_SHORT TOKYO_LAND CMA_LAT CMA_LON CMA_CAT CMA_WIND CMA_PRES HKO_LAT HKO_LON HKO_CAT HKO_WIND HKO_PRES NEWDELHI_LAT NEWDELHI_LON NEWDELHI_GRADE NEWDELHI_WIND NEWDELHI_PRES NEWDELHI_CI NEWDELHI_DP NEWDELHI_POCI REUNION_LAT REUNION_LON REUNION_TYPE REUNION_WIND REUNION_PRES REUNION_TNUM REUNION_CI REUNION_RMW REUNION_R34_NE REUNION_R34_SE REUNION_R34_SW REUNION_R34_NW REUNION_R50_NE REUNION_R50_SE REUNION_R50_SW REUNION_R50_NW REUNION_R64_NE REUNION_R64_SE REUNION_R64_SW REUNION_R64_NW BOM_LAT BOM_LON BOM_TYPE BOM_WIND BOM_PRES BOM_TNUM BOM_CI BOM_RMW BOM_R34_NE BOM_R34_SE BOM_R34_SW BOM_R34_NW BOM_R50_NE BOM_R50_SE BOM_R50_SW BOM_R50_NW BOM_R64_NE BOM_R64_SE BOM_R64_SW BOM_R64_NW BOM_ROCI BOM_POCI BOM_EYE BOM_POS_METHOD BOM_PRES_METHOD NADI_LAT NADI_LON NADI_CAT NADI_WIND NADI_PRES WELLINGTON_LAT WELLINGTON_LON WELLINGTON_WIND WELLINGTON_PRES DS824_LAT DS824_LON DS824_STAGE DS824_WIND DS824_PRES TD9636_LAT TD9636_LON TD9636_STAGE TD9636_WIND TD9636_PRES TD9635_LAT TD9635_LON TD9635_WIND TD9635_PRES TD9635_ROCI NEUMANN_LAT NEUMANN_LON NEUMANN_CLASS NEUMANN_WIND NEUMANN_PRES MLC_LAT MLC_LON MLC_CLASS MLC_WIND MLC_PRES USA_GUST BOM_GUST BOM_GUST_PER REUNION_GUST REUNION_GUST_PER USA_SEAHGT USA_SEARAD_NE USA_SEARAD_SE USA_SEARAD_SW USA_SEARAD_NW STORM_SPEED STORM_DIR
1931252N15307 1931 37 NA NA NOT_NAMED 1931-09-08 18:00:00 TS 15.2000 -53.0000 40 hurdat_atl main 1002 944 O_____________ hurdat_atl AL071931 15.2000 -53.0000 TS 40 0 15 277
1931252N15307 1931 37 NA NA NOT_NAMED 1931-09-08 21:00:00 TS 15.2930 -53.7899 main 934 870 P_____________ AL071931 15.2930 -53.7899 TS 42 0 16 277
1931252N15307 1931 37 NA NA NOT_NAMED 1931-09-09 00:00:00 TS 15.4000 -54.6000 45 hurdat_atl main 870 810 O_____________ hurdat_atl AL071931 15.4000 -54.6000 TS 45 0 16 279
1931252N15307 1931 37 NA NA NOT_NAMED 1931-09-09 03:00:00 TS 15.5348 -55.4426 main 810 756 P_____________ AL071931 15.5348 -55.4426 TS 45 0 17 280
1931252N15307 1931 37 NA NA NOT_NAMED 1931-09-09 06:00:00 TS 15.7000 -56.3000 45 hurdat_atl main 756 716 O_____________ hurdat_atl AL071931 15.7000 -56.3000 TS 45 0 17 282
1931252N15307 1931 37 NA NA NOT_NAMED 1931-09-09 09:00:00 TS 15.8773 -57.1652 main 712 686 P_____________ AL071931 15.8773 -57.1652 TS 47 0 17 284
1931252N15307 1931 37 NA NA NOT_NAMED 1931-09-09 12:00:00 TS 16.1000 -58.0000 50 hurdat_atl main 686 676 O_____________ hurdat_atl AL071931 16.1000 -58.0000 TS 50 0 16 288
1931252N15307 1931 37 NA NA NOT_NAMED 1931-09-09 15:00:00 TS 16.3846 -58.7726 main 681 668 P_____________ AL071931 16.3846 -58.7726 TS 52 0 16 293
1931252N15307 1931 37 NA NA NOT_NAMED 1931-09-09 18:00:00 TS 16.7000 -59.5000 55 hurdat_atl main 668 587 O_____________ hurdat_atl AL071931 16.7000 -59.5000 TS 55 0 15 294
1931252N15307 1931 37 NA NA NOT_NAMED 1931-09-09 21:00:00 TS 16.9998 -60.2152 main 587 507 P_____________ AL071931 16.9998 -60.2152 TS 55 0 15 294
1931252N15307 1931 37 NA CS NOT_NAMED 1931-09-10 00:00:00 TS 17.3000 -60.9000 55 hurdat_atl main 507 439 O_____________ hurdat_atl AL071931 17.3000 -60.9000 TS 55 0 14 296
1931252N15307 1931 37 NA CS NOT_NAMED 1931-09-10 03:00:00 TS 17.6148 -61.5650 main 428 361 P_____________ AL071931 17.6148 -61.5650 TS 57 0 14 296
1931252N15307 1931 37 NA CS NOT_NAMED 1931-09-10 06:00:00 TS 17.9000 -62.2000 60 hurdat_atl main 361 296 O_____________ hurdat_atl AL071931 17.9000 -62.2000 TS 60 0 13 294
1931252N15307 1931 37 NA CS NOT_NAMED 1931-09-10 09:00:00 TS 18.1374 -62.8226 main 296 232 P_____________ AL071931 18.1374 -62.8226 TS 62 0 12 289
1931252N15307 1931 37 NA CS NOT_NAMED 1931-09-10 12:00:00 TS 18.3000 -63.4000 65 hurdat_atl main 232 179 O_____________ hurdat_atl AL071931 18.3000 -63.4000 HU 65 1 11 283
1931252N15307 1931 37 NA CS NOT_NAMED 1931-09-10 15:00:00 TS 18.3722 -63.9153 main 179 126 P_____________ AL071931 18.3722 -63.9153 HU 67 1 10 276
1931252N15307 1931 37 NA CS NOT_NAMED 1931-09-10 18:00:00 TS 18.4000 -64.4000 70 hurdat_atl main 126 74 O_____________ hurdat_atl AL071931 18.4000 -64.4000 HU 70 1 9 275
1931252N15307 1931 37 NA CS NOT_NAMED 1931-09-10 21:00:00 TS 18.4572 -64.8850 main 74 23 P_____________ AL071931 18.4572 -64.8850 HU 72 1 10 276
1931252N15307 1931 37 NA CS NOT_NAMED 1931-09-11 00:00:00 TS 18.5000 -65.4000 75 987 hurdat_atl main 23 11 O_____________ hurdat_atl AL071931 18.5000 -65.4000 HU 75 987 1 10 273
1931252N15307 1931 37 NA NA NOT_NAMED 1931-09-11 03:00:00 TS 18.5074 -65.9776 main 11 11 P_____________ AL071931 18.5074 -65.9776 HU 72 1 11 270
1931252N15307 1931 37 NA NA NOT_NAMED 1931-09-11 06:00:00 TS 18.5000 -66.6000 70 hurdat_atl main 11 11 O_____________ hurdat_atl AL071931 18.5000 -66.6000 HU 70 1 12 270
1931252N15307 1931 37 NA NA NOT_NAMED 1931-09-11 09:00:00 TS 18.5072 -67.2274 main 11 11 P_____________ AL071931 18.5072 -67.2274 HU 67 1 12 270
1931252N15307 1931 37 NA CS NOT_NAMED 1931-09-11 12:00:00 TS 18.5000 -67.9000 65 hurdat_atl main 43 0 O_____________ hurdat_atl AL071931 18.5000 -67.9000 HU 65 1 13 268
1931252N15307 1931 37 NA NA NOT_NAMED 1931-09-11 15:00:00 TS 18.4574 -68.6351 main 0 0 P_____________ AL071931 18.4574 -68.6351 HU 60 0 14 266
1931252N15307 1931 37 NA CS NOT_NAMED 1931-09-11 18:00:00 TS 18.4000 -69.4000 55 hurdat_atl main 11 0 O_____________ hurdat_atl AL071931 18.4000 -69.4000 TS 55 0 14 266
1931252N15307 1931 37 NA CS NOT_NAMED 1931-09-11 21:00:00 TS 18.3496 -70.1425 main 0 0 P_____________ AL071931 18.3496 -70.1425 TS 50 0 14 266
1931252N15307 1931 37 NA CS NOT_NAMED 1931-09-12 00:00:00 TS 18.3000 -70.9000 45 hurdat_atl main 0 0 O_____________ hurdat_atl AL071931 18.3000 -70.9000 TS 45 0 15 266
1931252N15307 1931 37 NA NA NOT_NAMED 1931-09-12 03:00:00 TS 18.2498 -71.6925 main 0 0 P_____________ AL071931 18.2498 -71.6925 TS 42 0 15 266
1931252N15307 1931 37 NA CS NOT_NAMED 1931-09-12 06:00:00 TS 18.2000 -72.5000 40 hurdat_atl main 0 0 O_____________ hurdat_atl AL071931 18.2000 -72.5000 TS 40 0 15 266
1931252N15307 1931 37 NA CS NOT_NAMED 1931-09-12 09:00:00 TS 18.1422 -73.3001 main 11 0 P_____________ AL071931 18.1422 -73.3001 TS 42 0 15 266
1931252N15307 1931 37 NA CS NOT_NAMED 1931-09-12 12:00:00 TS 18.1000 -74.1000 45 hurdat_atl main 10 10 O_____________ hurdat_atl AL071931 18.1000 -74.1000 TS 45 0 15 268
1931252N15307 1931 37 NA CS NOT_NAMED 1931-09-12 15:00:00 TS 18.0922 -74.8999 main 53 53 P_____________ AL071931 18.0922 -74.8999 TS 52 0 15 270
1931252N15307 1931 37 NA CS NOT_NAMED 1931-09-12 18:00:00 TS 18.1000 -75.7000 60 hurdat_atl main 57 0 O_____________ hurdat_atl AL071931 18.1000 -75.7000 TS 60 0 15 270
1931252N15307 1931 37 NA CS NOT_NAMED 1931-09-12 21:00:00 TS 18.0998 -76.5150 main 0 0 P_____________ AL071931 18.0998 -76.5150 TS 57 0 15 270
1931252N15307 1931 37 NA CS NOT_NAMED 1931-09-13 00:00:00 TS 18.1000 -77.3000 55 hurdat_atl main 0 0 O_____________ hurdat_atl AL071931 18.1000 -77.3000 TS 55 0 14 270
1931252N15307 1931 37 NA CS NOT_NAMED 1931-09-13 03:00:00 TS 18.0921 -78.0151 main 10 10 P_____________ AL071931 18.0921 -78.0151 TS 57 0 13 270
1931252N15307 1931 37 NA CS NOT_NAMED 1931-09-13 06:00:00 TS 18.1000 -78.7000 60 hurdat_atl main 33 33 O_____________ hurdat_atl AL071931 18.1000 -78.7000 TS 60 0 13 273
1931252N15307 1931 37 NA CS NOT_NAMED 1931-09-13 09:00:00 TS 18.1497 -79.3924 main 106 105 P_____________ AL071931 18.1497 -79.3924 TS 60 0 13 274
1931252N15307 1931 37 NA CS NOT_NAMED 1931-09-13 12:00:00 TS 18.2000 -80.1000 60 hurdat_atl main 179 179 O_____________ hurdat_atl AL071931 18.2000 -80.1000 TS 60 0 14 272
1931252N15307 1931 37 NA CS NOT_NAMED 1931-09-13 15:00:00 TS 18.1997 -80.8352 main 253 253 P_____________ AL071931 18.1997 -80.8352 TS 60 0 14 270
1931252N15307 1931 37 NA CS NOT_NAMED 1931-09-13 18:00:00 TS 18.2000 -81.6000 60 hurdat_atl main 338 336 O_____________ hurdat_atl AL071931 18.2000 -81.6000 TS 60 0 15 272
1931252N15307 1931 37 NA CS NOT_NAMED 1931-09-13 21:00:00 TS 18.2499 -82.3998 main 336 303 P_____________ AL071931 18.2499 -82.3998 TS 60 0 15 274
1931252N15307 1931 37 NA CS NOT_NAMED 1931-09-14 00:00:00 TS 18.3000 -83.2000 60 hurdat_atl main 303 281 O_____________ hurdat_atl AL071931 18.3000 -83.2000 TS 60 0 15 272
1931252N15307 1931 37 NA CS NOT_NAMED 1931-09-14 03:00:00 TS 18.2996 -83.9577 main 278 268 P_____________ AL071931 18.2996 -83.9577 TS 60 0 14 270
1931252N15307 1931 37 NA CS NOT_NAMED 1931-09-14 06:00:00 TS 18.3000 -84.7000 60 hurdat_atl main 268 241 O_____________ hurdat_atl AL071931 18.3000 -84.7000 TS 60 0 14 272
1931252N15307 1931 37 NA CS NOT_NAMED 1931-09-14 09:00:00 TS 18.3424 -85.4649 main 231 157 P_____________ AL071931 18.3424 -85.4649 TS 60 0 14 274
1931252N15307 1931 37 NA CS NOT_NAMED 1931-09-14 12:00:00 TS 18.4000 -86.2000 60 hurdat_atl main 157 97 O_____________ hurdat_atl AL071931 18.4000 -86.2000 TS 60 0 13 274
1931252N15307 1931 37 NA CS NOT_NAMED 1931-09-14 15:00:00 TS 18.4421 -86.8651 main 87 23 P_____________ AL071931 18.4421 -86.8651 TS 60 0 12 275
1931252N15307 1931 37 NA CS NOT_NAMED 1931-09-14 18:00:00 TS 18.5000 -87.5000 60 hurdat_atl main 23 0 O_____________ hurdat_atl AL071931 18.5000 -87.5000 TS 60 0 12 277
1931252N15307 1931 37 NA CS NOT_NAMED 1931-09-14 21:00:00 TS 18.5848 -88.1501 main 10 0 P_____________ AL071931 18.5848 -88.1501 TS 55 0 12 279
1931252N15307 1931 37 NA NA NOT_NAMED 1931-09-15 00:00:00 TS 18.7000 -88.8000 50 hurdat_atl main 0 0 O_____________ hurdat_atl AL071931 18.7000 -88.8000 TS 50 0 13 282
1931252N15307 1931 37 NA NA NOT_NAMED 1931-09-15 03:00:00 TS 18.8423 -89.4500 main 0 0 P_____________ AL071931 18.8423 -89.4500 TS 47 0 13 284
1931252N15307 1931 37 NA NA NOT_NAMED 1931-09-15 06:00:00 TS 19.0000 -90.1000 45 hurdat_atl main 0 0 O_____________ hurdat_atl AL071931 19.0000 -90.1000 TS 45 0 13 285
1931252N15307 1931 37 NA NA NOT_NAMED 1931-09-15 09:00:00 TS 19.1648 -90.7499 main 0 0 P_____________ AL071931 19.1648 -90.7499 TS 50 0 13 284
1931252N15307 1931 37 NA GM NOT_NAMED 1931-09-15 12:00:00 TS 19.3000 -91.4000 55 hurdat_atl main 35 35 O_____________ hurdat_atl AL071931 19.3000 -91.4000 TS 55 0 12 280
1931252N15307 1931 37 NA GM NOT_NAMED 1931-09-15 15:00:00 TS 19.3798 -92.0500 main 84 84 P_____________ AL071931 19.3798 -92.0500 TS 60 0 12 275
1931252N15307 1931 37 NA GM NOT_NAMED 1931-09-15 18:00:00 TS 19.4000 -92.7000 65 hurdat_atl main 89 89 O_____________ hurdat_atl AL071931 19.4000 -92.7000 HU 65 1 12 270
1931252N15307 1931 37 NA GM NOT_NAMED 1931-09-15 21:00:00 TS 19.3723 -93.3501 main 115 111 P_____________ AL071931 19.3723 -93.3501 HU 70 1 12 265
1931252N15307 1931 37 NA GM NOT_NAMED 1931-09-16 00:00:00 TS 19.3000 -94.0000 75 hurdat_atl main 112 79 O_____________ hurdat_atl AL071931 19.3000 -94.0000 HU 75 1 12 263
1931252N15307 1931 37 NA GM NOT_NAMED 1931-09-16 03:00:00 TS 19.2148 -94.6499 main 79 44 P_____________ AL071931 19.2148 -94.6499 HU 80 1 12 261
1931252N15307 1931 37 NA GM NOT_NAMED 1931-09-16 06:00:00 TS 19.1000 -95.3000 85 hurdat_atl main 44 10 O_____________ hurdat_atl AL071931 19.1000 -95.3000 HU 85 2 13 258
1931252N15307 1931 37 NA GM NOT_NAMED 1931-09-16 09:00:00 TS 18.9573 -95.9575 main 0 0 P_____________ AL071931 18.9573 -95.9575 HU 77 1 13 256
1931252N15307 1931 37 NA NA NOT_NAMED 1931-09-16 12:00:00 TS 18.8000 -96.6000 70 hurdat_atl main 0 0 O_____________ hurdat_atl AL071931 18.8000 -96.6000 HU 70 1 12 255
1931252N15307 1931 37 NA NA NOT_NAMED 1931-09-16 15:00:00 TS 18.6478 -97.2101 main 0 0 P_____________ AL071931 18.6478 -97.2101 HU 52 0 12 255
1931252N15307 1931 37 NA NA NOT_NAMED 1931-09-16 18:00:00 TS 18.5000 -97.8000 35 hurdat_atl main 0 O_____________ hurdat_atl AL071931 18.5000 -97.8000 TS 35 0 12 255

About IBTrACS Database

This database is a web-friendly format of International Best Track Archive for Climate Stewardship (IBTrACS), a global best track data archive curated by NOAA dating back to 1842.

Updated: 2021-10-25